Time;durP1;ratioP1;P1;durP2;ratioP2;P2;SDS_P1;SDS_P2;PMS_P1;PMS_P2;Temp;Humidity;BMP_temperature;BMP_pressure;BME280_temperature;BME280_humidity;BME280_pressure;Samples;Min_cycle;Max_cycle;Signal;HPM_P1;HPM_P2
2023/10/26 00:01:39;;;;;;;24.53;13.50;;;;;;;;;;5080957;28;20125;-68
2023/10/26 00:04:05;;;;;;;23.03;12.97;;;;;;;;;;5080453;28;20048;-67
2023/10/26 00:06:30;;;;;;;23.07;12.03;;;;;;;;;;5077327;28;20028;-67
2023/10/26 00:08:55;;;;;;;22.10;12.43;;;;;;;;;;5080669;28;20031;-67
2023/10/26 00:11:20;;;;;;;28.00;13.73;;;;;;;;;;5080875;28;20048;-67
2023/10/26 00:13:46;;;;;;;21.60;12.40;;;;;;;;;;5074350;28;20504;-68
2023/10/26 00:16:11;;;;;;;25.00;13.57;;;;;;;;;;5077103;28;20139;-68
2023/10/26 00:18:36;;;;;;;26.13;13.80;;;;;;;;;;5075540;28;20027;-69
2023/10/26 00:21:01;;;;;;;25.97;14.17;;;;;;;;;;5078525;28;20023;-67
2023/10/26 00:23:27;;;;;;;28.30;14.70;;;;;;;;;;5080645;28;20510;-68
2023/10/26 00:25:53;;;;;;;24.67;12.27;;;;;;;;;;5077301;28;20020;-67
2023/10/26 00:28:19;;;;;;;24.10;13.77;;;;;;;;;;5077821;28;20468;-68
2023/10/26 00:30:44;;;;;;;22.87;13.00;;;;;;;;;;5078143;28;20031;-67
2023/10/26 00:33:09;;;;;;;19.90;11.93;;;;;;;;;;5082040;28;20108;-67
2023/10/26 00:35:34;;;;;;;20.73;11.30;;;;;;;;;;5081450;28;20039;-67
2023/10/26 00:38:00;;;;;;;25.03;14.03;;;;;;;;;;5078134;28;20567;-65
2023/10/26 00:40:25;;;;;;;24.57;13.47;;;;;;;;;;5076917;28;20054;-62
2023/10/26 00:42:50;;;;;;;24.50;13.60;;;;;;;;;;5078528;28;20376;-65
2023/10/26 00:45:15;;;;;;;29.67;15.03;;;;;;;;;;5077822;28;20028;-65
2023/10/26 00:47:41;;;;;;;25.73;13.70;;;;;;;;;;5079541;28;20419;-64
2023/10/26 00:50:06;;;;;;;31.43;16.03;;;;;;;;;;5081134;28;20026;-65
2023/10/26 00:52:34;;;;;;;29.93;16.20;;;;;;;;;;5077203;28;20393;-66
2023/10/26 00:55:00;;;;;;;31.57;16.00;;;;;;;;;;5077708;28;20487;-66
2023/10/26 00:57:26;;;;;;;27.73;15.67;;;;;;;;;;5079447;28;20024;-65
2023/10/26 00:59:51;;;;;;;31.30;15.90;;;;;;;;;;5077822;28;20560;-63
2023/10/26 01:02:18;;;;;;;27.80;16.00;;;;;;;;;;5078151;28;20044;-66
2023/10/26 01:04:43;;;;;;;29.03;14.70;;;;;;;;;;5078970;28;20029;-65
2023/10/26 01:07:08;;;;;;;35.57;17.53;;;;;;;;;;5080066;28;20471;-65
2023/10/26 01:09:34;;;;;;;35.30;17.63;;;;;;;;;;5074144;28;20488;-66
2023/10/26 01:12:00;;;;;;;35.37;17.83;;;;;;;;;;5077552;28;20042;-63
2023/10/26 01:14:27;;;;;;;32.70;17.30;;;;;;;;;;5077592;28;20016;-65
2023/10/26 01:16:52;;;;;;;37.07;18.23;;;;;;;;;;5078074;28;20022;-64
2023/10/26 01:19:18;;;;;;;35.77;17.67;;;;;;;;;;5078928;28;20502;-64
2023/10/26 01:21:52;;;;;;;33.40;17.93;;;;;;;;;;5079113;28;20350;-63
2023/10/26 01:24:18;;;;;;;33.40;17.33;;;;;;;;;;5072411;28;20482;-63
2023/10/26 01:26:43;;;;;;;38.27;19.13;;;;;;;;;;5077060;28;20056;-65
2023/10/26 01:29:09;;;;;;;37.87;18.90;;;;;;;;;;5077657;28;20486;-64
2023/10/26 01:31:34;;;;;;;42.67;19.77;;;;;;;;;;5077654;28;20031;-65
2023/10/26 01:33:59;;;;;;;44.73;20.53;;;;;;;;;;5082136;28;20035;-64
2023/10/26 01:36:25;;;;;;;40.03;19.40;;;;;;;;;;5078759;28;20035;-65
2023/10/26 01:38:50;;;;;;;46.07;20.07;;;;;;;;;;5080559;28;20043;-65
2023/10/26 01:41:16;;;;;;;40.87;18.53;;;;;;;;;;5082429;28;20035;-64
2023/10/26 01:43:41;;;;;;;47.13;22.10;;;;;;;;;;5083454;28;20028;-64
2023/10/26 01:46:06;;;;;;;45.97;21.47;;;;;;;;;;5081248;28;20024;-64
2023/10/26 01:48:31;;;;;;;45.70;21.40;;;;;;;;;;5082313;28;20020;-65
2023/10/26 01:50:57;;;;;;;49.13;21.17;;;;;;;;;;5080388;28;20431;-65
2023/10/26 01:53:23;;;;;;;46.47;22.27;;;;;;;;;;5083202;28;20392;-64
2023/10/26 01:55:49;;;;;;;49.20;22.63;;;;;;;;;;5082889;28;20396;-65
2023/10/26 01:58:14;;;;;;;46.80;21.10;;;;;;;;;;5082863;28;20020;-63
2023/10/26 02:00:39;;;;;;;45.83;20.83;;;;;;;;;;5082572;28;20025;-64
2023/10/26 02:03:04;;;;;;;45.63;20.73;;;;;;;;;;5080970;28;20053;-63
2023/10/26 02:05:29;;;;;;;55.03;22.20;;;;;;;;;;5080068;28;20035;-65
2023/10/26 02:07:55;;;;;;;45.90;20.13;;;;;;;;;;5080982;28;20069;-64
2023/10/26 02:10:20;;;;;;;36.47;17.63;;;;;;;;;;5082126;28;20035;-64
2023/10/26 02:12:46;;;;;;;38.27;17.10;;;;;;;;;;5079873;28;20039;-64
2023/10/26 02:15:14;;;;;;;37.40;16.67;;;;;;;;;;5083880;28;20103;-64
2023/10/26 02:17:39;;;;;;;44.03;18.27;;;;;;;;;;5085632;28;20032;-65
2023/10/26 02:20:05;;;;;;;37.57;17.77;;;;;;;;;;5084794;28;20043;-63
2023/10/26 02:22:30;;;;;;;35.93;17.23;;;;;;;;;;5080662;28;20036;-66
2023/10/26 02:24:55;;;;;;;36.47;16.83;;;;;;;;;;5080550;28;20733;-65
2023/10/26 02:27:20;;;;;;;35.70;15.63;;;;;;;;;;5083386;28;20035;-64
2023/10/26 02:29:45;;;;;;;31.90;14.53;;;;;;;;;;5084867;28;20376;-62
2023/10/26 02:32:11;;;;;;;22.27;11.57;;;;;;;;;;5079722;28;20380;-62
2023/10/26 02:34:36;;;;;;;29.27;14.60;;;;;;;;;;5082453;28;20643;-65
2023/10/26 02:37:01;;;;;;;32.27;16.10;;;;;;;;;;5082998;28;20435;-64
2023/10/26 02:39:27;;;;;;;34.53;15.70;;;;;;;;;;5082668;28;20477;-64
2023/10/26 02:41:52;;;;;;;38.30;16.03;;;;;;;;;;5082063;28;20112;-65
2023/10/26 02:44:17;;;;;;;41.70;17.03;;;;;;;;;;5078861;28;20043;-64
2023/10/26 02:46:43;;;;;;;40.83;17.63;;;;;;;;;;5083128;28;20039;-66
2023/10/26 02:49:08;;;;;;;41.00;19.47;;;;;;;;;;5081993;28;20346;-65
2023/10/26 02:51:33;;;;;;;48.93;20.27;;;;;;;;;;5083093;28;20066;-66
2023/10/26 02:53:59;;;;;;;44.57;18.97;;;;;;;;;;5080161;28;20031;-66
2023/10/26 02:56:24;;;;;;;45.90;20.43;;;;;;;;;;5082757;28;20032;-65
2023/10/26 02:58:49;;;;;;;50.97;19.90;;;;;;;;;;5079844;28;20231;-69
2023/10/26 03:01:14;;;;;;;44.50;19.80;;;;;;;;;;5078396;28;20035;-69
2023/10/26 03:03:39;;;;;;;47.63;19.97;;;;;;;;;;5077046;28;20523;-68
2023/10/26 03:06:05;;;;;;;45.57;19.73;;;;;;;;;;5078108;28;20455;-67
2023/10/26 03:08:30;;;;;;;53.70;20.73;;;;;;;;;;5082587;28;20031;-68
2023/10/26 03:10:55;;;;;;;49.17;21.93;;;;;;;;;;5079379;28;20420;-68
2023/10/26 03:13:20;;;;;;;50.87;21.40;;;;;;;;;;5077914;28;20544;-68
2023/10/26 03:15:46;;;;;;;56.93;22.63;;;;;;;;;;5078498;28;20032;-69
2023/10/26 03:18:11;;;;;;;51.17;19.67;;;;;;;;;;5081256;28;20025;-68
2023/10/26 03:20:36;;;;;;;59.53;22.50;;;;;;;;;;5066593;28;20020;-69
2023/10/26 03:23:02;;;;;;;53.70;20.90;;;;;;;;;;5078279;28;20030;-69
2023/10/26 03:25:27;;;;;;;61.13;22.77;;;;;;;;;;5083295;28;20039;-69
2023/10/26 03:27:52;;;;;;;55.47;21.87;;;;;;;;;;5084070;28;20039;-69
2023/10/26 03:30:18;;;;;;;55.10;22.17;;;;;;;;;;5083665;28;20102;-68
2023/10/26 03:32:44;;;;;;;55.17;21.67;;;;;;;;;;5078182;28;20024;-69
2023/10/26 03:35:09;;;;;;;57.13;21.17;;;;;;;;;;5081701;28;20024;-69
2023/10/26 03:37:36;;;;;;;63.27;23.63;;;;;;;;;;5083082;28;20114;-69
2023/10/26 03:40:02;;;;;;;56.83;22.30;;;;;;;;;;5077895;28;20086;-69
2023/10/26 03:42:27;;;;;;;63.87;21.23;;;;;;;;;;5077184;28;20264;-69
2023/10/26 03:44:53;;;;;;;66.77;23.50;;;;;;;;;;5075221;28;20465;-69
2023/10/26 03:47:18;;;;;;;58.87;23.27;;;;;;;;;;5078695;28;20468;-68
2023/10/26 03:49:44;;;;;;;59.80;21.67;;;;;;;;;;5080750;28;20167;-69
2023/10/26 03:52:09;;;;;;;58.27;21.93;;;;;;;;;;5082227;28;20240;-69
2023/10/26 03:54:34;;;;;;;69.97;25.93;;;;;;;;;;5080290;28;20073;-69
2023/10/26 03:57:00;;;;;;;63.47;24.20;;;;;;;;;;5081938;28;20039;-68
2023/10/26 03:59:25;;;;;;;63.90;22.47;;;;;;;;;;5080421;28;20480;-68
2023/10/26 04:01:50;;;;;;;62.80;23.77;;;;;;;;;;5078933;28;20045;-68
2023/10/26 04:04:15;;;;;;;67.70;22.63;;;;;;;;;;5076843;28;20181;-68
2023/10/26 04:06:41;;;;;;;66.80;22.77;;;;;;;;;;5082600;28;20047;-68
2023/10/26 04:09:06;;;;;;;69.10;26.37;;;;;;;;;;5077688;28;20063;-68
2023/10/26 04:11:31;;;;;;;68.70;25.23;;;;;;;;;;5078932;28;20025;-69
2023/10/26 04:13:57;;;;;;;67.23;24.33;;;;;;;;;;5079269;28;20036;-68
2023/10/26 04:16:23;;;;;;;67.10;24.90;;;;;;;;;;5076007;28;20059;-69
2023/10/26 04:18:48;;;;;;;74.80;25.33;;;;;;;;;;5080178;28;20067;-68
2023/10/26 04:21:13;;;;;;;73.00;24.17;;;;;;;;;;5078557;28;20039;-68
2023/10/26 04:23:39;;;;;;;70.57;22.93;;;;;;;;;;5080292;28;20082;-68
2023/10/26 04:26:05;;;;;;;67.43;23.87;;;;;;;;;;5073012;28;20499;-68
2023/10/26 04:28:30;;;;;;;66.47;22.07;;;;;;;;;;5080040;28;20051;-68
2023/10/26 04:30:55;;;;;;;63.33;23.43;;;;;;;;;;5075827;28;20020;-65
2023/10/26 04:33:20;;;;;;;68.33;23.97;;;;;;;;;;5075312;28;20039;-64
2023/10/26 04:35:46;;;;;;;69.17;23.43;;;;;;;;;;5081919;28;20016;-64
2023/10/26 04:38:11;;;;;;;69.60;23.80;;;;;;;;;;5074889;28;20024;-65
2023/10/26 04:40:41;;;;;;;64.70;22.97;;;;;;;;;;5078522;28;20020;-64
2023/10/26 04:43:06;;;;;;;64.93;23.60;;;;;;;;;;5079825;28;20491;-66
2023/10/26 04:45:32;;;;;;;72.00;24.00;;;;;;;;;;5079351;28;20017;-65
2023/10/26 04:47:57;;;;;;;67.30;24.07;;;;;;;;;;5076962;28;20055;-64
2023/10/26 04:50:23;;;;;;;73.53;26.60;;;;;;;;;;5081137;28;20023;-64
2023/10/26 04:52:48;;;;;;;85.63;26.50;;;;;;;;;;5081559;28;20017;-65
2023/10/26 04:55:13;;;;;;;80.27;26.40;;;;;;;;;;5078147;28;20480;-63
2023/10/26 04:57:38;;;;;;;86.10;27.27;;;;;;;;;;5081723;28;20066;-64
2023/10/26 05:00:08;;;;;;;73.40;26.40;;;;;;;;;;5076219;28;20020;-64
2023/10/26 05:02:34;;;;;;;75.53;26.13;;;;;;;;;;5074783;28;20136;-64
2023/10/26 05:04:59;;;;;;;71.20;23.77;;;;;;;;;;5075972;28;20035;-65
2023/10/26 05:07:24;;;;;;;78.60;25.53;;;;;;;;;;5078928;28;20027;-63
2023/10/26 05:09:49;;;;;;;85.33;26.67;;;;;;;;;;5076074;28;20373;-63
2023/10/26 05:12:14;;;;;;;76.83;25.67;;;;;;;;;;5077311;28;20419;-63
2023/10/26 05:14:40;;;;;;;76.63;25.47;;;;;;;;;;5074353;28;20074;-65
2023/10/26 05:17:05;;;;;;;86.57;26.70;;;;;;;;;;5081506;28;20020;-64
2023/10/26 05:19:32;;;;;;;88.90;27.23;;;;;;;;;;5077583;28;20024;-64
2023/10/26 05:21:58;;;;;;;79.77;25.60;;;;;;;;;;5078484;28;20024;-66
2023/10/26 05:24:23;;;;;;;75.60;24.57;;;;;;;;;;5076570;28;20054;-66
2023/10/26 05:26:48;;;;;;;77.57;26.37;;;;;;;;;;5078777;28;20085;-63
2023/10/26 05:29:13;;;;;;;80.13;24.53;;;;;;;;;;5080131;28;20026;-65
2023/10/26 05:31:39;;;;;;;82.43;26.00;;;;;;;;;;5078413;28;20036;-65
2023/10/26 05:34:04;;;;;;;83.73;25.40;;;;;;;;;;5083135;28;20028;-64
2023/10/26 05:36:29;;;;;;;79.33;25.63;;;;;;;;;;5077544;28;20064;-64
2023/10/26 05:38:54;;;;;;;82.37;25.50;;;;;;;;;;5077215;28;20031;-64
2023/10/26 05:41:20;;;;;;;83.80;25.80;;;;;;;;;;5078803;28;20033;-68
2023/10/26 05:43:45;;;;;;;80.90;25.23;;;;;;;;;;5081820;28;20036;-68
2023/10/26 05:46:11;;;;;;;79.83;25.30;;;;;;;;;;5080821;28;20101;-69
2023/10/26 05:48:36;;;;;;;85.27;25.03;;;;;;;;;;5081156;28;20043;-68
2023/10/26 05:51:02;;;;;;;81.53;26.43;;;;;;;;;;5073380;28;20008;-68
2023/10/26 05:53:27;;;;;;;81.67;25.23;;;;;;;;;;5082588;28;20470;-68
2023/10/26 05:55:57;;;;;;;76.97;23.67;;;;;;;;;;5079936;28;20479;-68
2023/10/26 05:58:22;;;;;;;81.50;25.00;;;;;;;;;;5079835;28;20019;-68
2023/10/26 06:00:47;;;;;;;83.97;25.87;;;;;;;;;;5082871;28;20012;-67
2023/10/26 06:03:13;;;;;;;84.63;24.97;;;;;;;;;;5079451;28;20416;-68
2023/10/26 06:05:38;;;;;;;77.80;24.63;;;;;;;;;;5062244;28;20399;-68
2023/10/26 06:08:03;;;;;;;82.33;25.13;;;;;;;;;;5079857;28;20069;-68
2023/10/26 06:10:28;;;;;;;80.53;24.97;;;;;;;;;;5078709;28;20019;-68
2023/10/26 06:12:54;;;;;;;86.53;25.20;;;;;;;;;;5081789;28;20020;-68
2023/10/26 06:15:20;;;;;;;83.57;24.90;;;;;;;;;;5078848;28;20430;-67
2023/10/26 06:17:46;;;;;;;81.10;24.57;;;;;;;;;;5076488;28;20024;-67
2023/10/26 06:20:11;;;;;;;83.37;24.73;;;;;;;;;;5083345;28;20514;-67
2023/10/26 06:22:36;;;;;;;77.63;24.53;;;;;;;;;;5078339;28;20402;-67
2023/10/26 06:25:03;;;;;;;78.13;25.20;;;;;;;;;;5082738;28;20221;-67
2023/10/26 06:27:28;;;;;;;83.00;25.87;;;;;;;;;;5080155;28;20020;-68
2023/10/26 06:29:54;;;;;;;76.90;24.63;;;;;;;;;;5077604;28;20013;-67
2023/10/26 06:32:19;;;;;;;84.60;24.83;;;;;;;;;;5066026;28;20036;-67
2023/10/26 06:34:45;;;;;;;79.73;23.80;;;;;;;;;;5074758;28;20020;-68
2023/10/26 06:37:10;;;;;;;93.03;25.30;;;;;;;;;;5078636;28;20032;-67
2023/10/26 06:39:36;;;;;;;86.53;26.17;;;;;;;;;;5080800;28;20036;-67
2023/10/26 06:42:01;;;;;;;89.07;26.20;;;;;;;;;;5081387;28;20023;-68
2023/10/26 06:44:26;;;;;;;86.97;24.87;;;;;;;;;;5085427;28;20032;-68
2023/10/26 06:46:51;;;;;;;79.93;25.67;;;;;;;;;;5079493;28;20020;-68
2023/10/26 06:49:17;;;;;;;87.13;25.27;;;;;;;;;;5082418;28;20035;-66
2023/10/26 06:51:42;;;;;;;79.00;24.77;;;;;;;;;;5083638;28;20020;-65
2023/10/26 06:54:07;;;;;;;90.40;25.83;;;;;;;;;;5083581;28;20023;-64
2023/10/26 06:56:36;;;;;;;88.20;26.30;;;;;;;;;;5081966;28;20339;-65
2023/10/26 06:59:02;;;;;;;86.23;27.57;;;;;;;;;;5080546;28;20580;-64
2023/10/26 07:01:27;;;;;;;80.27;24.83;;;;;;;;;;5078819;28;20399;-64
2023/10/26 07:03:52;;;;;;;86.53;26.47;;;;;;;;;;5085150;28;20060;-66
2023/10/26 07:06:18;;;;;;;81.00;25.53;;;;;;;;;;5082655;28;20380;-65
2023/10/26 07:08:44;;;;;;;80.53;25.97;;;;;;;;;;5083340;28;20035;-66
2023/10/26 07:11:09;;;;;;;82.63;24.43;;;;;;;;;;5082131;28;20024;-67
2023/10/26 07:13:34;;;;;;;87.93;24.67;;;;;;;;;;5086172;28;20019;-64
2023/10/26 07:16:00;;;;;;;79.73;24.93;;;;;;;;;;5083430;28;20379;-65
2023/10/26 07:18:25;;;;;;;76.67;25.30;;;;;;;;;;5082301;28;20012;-64
2023/10/26 07:20:51;;;;;;;75.37;24.87;;;;;;;;;;5080218;28;20043;-65
2023/10/26 07:23:17;;;;;;;70.90;24.40;;;;;;;;;;5082083;28;20175;-65
2023/10/26 07:25:42;;;;;;;76.07;24.50;;;;;;;;;;5075167;28;20415;-65
2023/10/26 07:28:07;;;;;;;77.73;25.47;;;;;;;;;;5081737;28;20016;-65
2023/10/26 07:30:38;;;;;;;77.43;24.10;;;;;;;;;;5080722;28;20012;-64
2023/10/26 07:33:03;;;;;;;72.90;25.13;;;;;;;;;;5079041;28;20008;-65
2023/10/26 07:35:28;;;;;;;72.20;25.00;;;;;;;;;;5084034;28;20032;-65
2023/10/26 07:37:53;;;;;;;75.70;25.00;;;;;;;;;;5079552;28;20008;-66
2023/10/26 07:40:19;;;;;;;80.17;25.27;;;;;;;;;;5081001;28;20024;-65
2023/10/26 07:42:44;;;;;;;65.80;23.60;;;;;;;;;;5080465;28;20028;-66
2023/10/26 07:45:09;;;;;;;67.13;24.93;;;;;;;;;;5082852;28;20107;-65
2023/10/26 07:47:34;;;;;;;65.53;24.20;;;;;;;;;;5081194;28;20044;-65
2023/10/26 07:50:00;;;;;;;66.07;24.53;;;;;;;;;;5081068;28;20016;-64
2023/10/26 07:52:25;;;;;;;62.97;22.83;;;;;;;;;;5083283;28;20035;-64
2023/10/26 07:54:50;;;;;;;59.73;22.87;;;;;;;;;;5082129;28;20016;-64
2023/10/26 07:57:16;;;;;;;64.00;24.53;;;;;;;;;;5074194;28;20024;-66
2023/10/26 07:59:41;;;;;;;50.63;21.93;;;;;;;;;;5082027;28;20046;-66
2023/10/26 08:02:07;;;;;;;55.73;21.47;;;;;;;;;;5083119;28;20051;-66
2023/10/26 08:04:32;;;;;;;52.73;21.73;;;;;;;;;;5081436;28;20028;-66
2023/10/26 08:06:58;;;;;;;53.40;22.00;;;;;;;;;;5083714;28;20020;-65
2023/10/26 08:09:25;;;;;;;47.90;21.50;;;;;;;;;;5076779;28;20160;-64
2023/10/26 08:11:51;;;;;;;45.97;21.57;;;;;;;;;;5083553;28;20024;-64
2023/10/26 08:14:16;;;;;;;48.07;20.53;;;;;;;;;;5079624;28;20050;-64
2023/10/26 08:16:42;;;;;;;43.80;20.97;;;;;;;;;;5082320;28;20069;-64
2023/10/26 08:19:08;;;;;;;42.60;20.67;;;;;;;;;;5081985;28;20514;-64
2023/10/26 08:21:33;;;;;;;41.57;20.03;;;;;;;;;;5078693;28;20035;-64
2023/10/26 08:23:58;;;;;;;40.50;19.43;;;;;;;;;;5081881;28;20032;-65
2023/10/26 08:26:23;;;;;;;41.13;19.17;;;;;;;;;;5080341;28;20359;-64
2023/10/26 08:28:49;;;;;;;38.03;18.67;;;;;;;;;;5079460;28;20444;-64
2023/10/26 08:31:14;;;;;;;38.73;19.03;;;;;;;;;;5077908;28;20364;-64
2023/10/26 08:33:40;;;;;;;40.40;20.27;;;;;;;;;;5078718;28;20020;-64
2023/10/26 08:36:05;;;;;;;38.43;19.50;;;;;;;;;;5076845;28;20020;-63
2023/10/26 08:38:32;;;;;;;35.20;17.90;;;;;;;;;;5080608;28;20046;-63
2023/10/26 08:40:57;;;;;;;37.80;18.57;;;;;;;;;;5076874;28;20017;-63
2023/10/26 08:43:23;;;;;;;38.70;18.40;;;;;;;;;;5081838;28;20058;-65
2023/10/26 08:45:50;;;;;;;38.40;19.07;;;;;;;;;;5078373;28;20048;-65
2023/10/26 08:48:17;;;;;;;36.00;18.13;;;;;;;;;;5079288;28;20096;-64
2023/10/26 08:50:42;;;;;;;35.63;17.87;;;;;;;;;;5081942;28;20460;-64
2023/10/26 08:53:08;;;;;;;33.20;17.83;;;;;;;;;;5079103;28;20016;-64
2023/10/26 08:55:34;;;;;;;30.63;17.07;;;;;;;;;;5079718;28;20027;-65
2023/10/26 08:58:02;;;;;;;32.20;17.00;;;;;;;;;;5080918;28;20031;-64
2023/10/26 09:00:31;;;;;;;33.13;18.10;;;;;;;;;;5083197;28;20052;-65
2023/10/26 09:02:58;;;;;;;29.47;15.53;;;;;;;;;;5079101;28;20196;-63
2023/10/26 09:05:24;;;;;;;30.83;17.03;;;;;;;;;;5081801;28;20476;-64
2023/10/26 09:07:51;;;;;;;36.60;18.67;;;;;;;;;;5077068;28;20023;-63
2023/10/26 09:10:29;;;;;;;30.63;17.73;;;;;;;;;;5083030;28;20236;-68
2023/10/26 09:12:59;;;;;;;33.40;17.63;;;;;;;;;;5080083;28;20073;-66
2023/10/26 09:15:24;;;;;;;32.03;17.00;;;;;;;;;;5081607;28;20251;-66
2023/10/26 09:17:51;;;;;;;29.70;15.97;;;;;;;;;;5083650;28;20487;-66
2023/10/26 09:20:18;;;;;;;27.63;15.67;;;;;;;;;;5078562;28;20024;-66
2023/10/26 09:22:43;;;;;;;27.57;15.20;;;;;;;;;;5080296;28;20503;-65
2023/10/26 09:25:09;;;;;;;26.23;15.00;;;;;;;;;;5077925;28;20020;-65
2023/10/26 09:27:35;;;;;;;27.05;15.05;;;;;;;;;;5082295;28;20525;-66
2023/10/26 09:30:00;;;;;;;25.52;14.60;;;;;;;;;;5081134;28;20016;-66
2023/10/26 09:32:35;;;;;;;20.50;13.38;;;;;;;;;;5078445;28;20052;-66
2023/10/26 09:35:01;;;;;;;25.85;14.50;;;;;;;;;;5077307;28;20020;-67
2023/10/26 09:37:26;;;;;;;26.50;15.13;;;;;;;;;;5081064;28;20043;-66
2023/10/26 09:39:51;;;;;;;23.05;14.00;;;;;;;;;;5079902;28;20028;-66
2023/10/26 09:42:17;;;;;;;24.60;14.27;;;;;;;;;;5080781;28;20024;-66
2023/10/26 09:44:42;;;;;;;24.05;14.95;;;;;;;;;;5073841;28;20031;-68
2023/10/26 09:47:08;;;;;;;23.90;13.23;;;;;;;;;;5078611;28;20016;-68
2023/10/26 09:49:33;;;;;;;26.23;14.18;;;;;;;;;;5080092;28;20452;-68
2023/10/26 09:51:59;;;;;;;24.73;15.05;;;;;;;;;;5077240;28;20009;-68
2023/10/26 09:54:26;;;;;;;25.10;15.25;;;;;;;;;;5083121;28;20028;-68
2023/10/26 09:56:56;;;;;;;22.63;14.50;;;;;;;;;;5081583;28;20075;-68
2023/10/26 09:59:22;;;;;;;22.25;14.15;;;;;;;;;;5083360;28;20020;-68
2023/10/26 10:01:48;;;;;;;24.27;14.45;;;;;;;;;;5079695;28;20088;-68
2023/10/26 10:04:14;;;;;;;24.23;15.43;;;;;;;;;;5081375;28;20032;-68
2023/10/26 10:06:43;;;;;;;28.30;15.57;;;;;;;;;;5081222;28;20020;-68
2023/10/26 10:09:10;;;;;;;26.33;15.98;;;;;;;;;;5084405;28;20458;-68
2023/10/26 10:11:35;;;;;;;30.33;16.77;;;;;;;;;;5083863;28;20016;-68
2023/10/26 10:14:01;;;;;;;24.13;14.45;;;;;;;;;;5083643;28;20064;-68
2023/10/26 10:16:35;;;;;;;30.57;16.67;;;;;;;;;;5085158;28;20080;-68
2023/10/26 10:19:29;;;;;;;26.07;15.90;;;;;;;;;;5083087;28;20032;-68
2023/10/26 10:21:55;;;;;;;28.13;17.33;;;;;;;;;;5066229;28;20043;-64
2023/10/26 10:24:39;;;;;;;29.08;16.67;;;;;;;;;;5084366;28;20028;-64
2023/10/26 10:27:11;;;;;;;26.73;16.37;;;;;;;;;;5084131;28;20020;-64
2023/10/26 10:29:36;;;;;;;27.73;16.37;;;;;;;;;;5086345;28;20460;-64
2023/10/26 10:32:01;;;;;;;30.23;17.80;;;;;;;;;;5082350;28;20025;-65
2023/10/26 10:34:29;;;;;;;26.10;16.03;;;;;;;;;;5080963;28;20379;-65
2023/10/26 10:37:13;;;;;;;27.77;16.77;;;;;;;;;;5084408;28;20099;-64
2023/10/26 10:39:39;;;;;;;28.05;16.63;;;;;;;;;;5083473;28;20032;-66
2023/10/26 10:42:08;;;;;;;26.90;16.95;;;;;;;;;;5080037;28;20023;-65
2023/10/26 10:44:36;;;;;;;26.65;15.73;;;;;;;;;;5078653;28;20024;-65
2023/10/26 10:47:01;;;;;;;25.40;15.95;;;;;;;;;;5083154;28;20384;-64
2023/10/26 10:49:26;;;;;;;26.33;16.45;;;;;;;;;;5084157;28;20028;-64
2023/10/26 10:51:52;;;;;;;25.83;15.38;;;;;;;;;;5082991;28;20016;-64
2023/10/26 10:54:20;;;;;;;24.95;15.25;;;;;;;;;;5080977;28;20531;-65
2023/10/26 10:56:47;;;;;;;26.23;16.23;;;;;;;;;;5081569;28;20031;-64
2023/10/26 10:59:16;;;;;;;29.05;16.35;;;;;;;;;;5081939;28;20416;-65
2023/10/26 11:01:42;;;;;;;26.25;16.27;;;;;;;;;;5082361;28;20028;-65
2023/10/26 11:04:10;;;;;;;27.37;16.73;;;;;;;;;;5082322;28;20051;-65
2023/10/26 11:06:41;;;;;;;25.77;15.50;;;;;;;;;;5082629;28;20532;-65
2023/10/26 11:09:18;;;;;;;22.02;14.40;;;;;;;;;;5081542;28;20020;-64
2023/10/26 11:11:44;;;;;;;24.70;16.03;;;;;;;;;;5082157;28;20012;-65
2023/10/26 11:14:10;;;;;;;26.90;16.37;;;;;;;;;;5083814;28;20016;-66
2023/10/26 11:16:36;;;;;;;25.63;16.20;;;;;;;;;;5083295;28;20469;-64
2023/10/26 11:19:02;;;;;;;23.67;13.47;;;;;;;;;;5083006;28;20345;-63
2023/10/26 11:21:27;;;;;;;26.40;16.07;;;;;;;;;;5081310;28;20347;-64
2023/10/26 11:23:52;;;;;;;27.67;16.77;;;;;;;;;;5084581;28;20051;-64
2023/10/26 11:26:18;;;;;;;26.17;16.40;;;;;;;;;;5083239;28;20020;-63
2023/10/26 11:28:43;;;;;;;31.00;16.90;;;;;;;;;;5083252;28;20020;-64
2023/10/26 11:31:08;;;;;;;30.90;17.40;;;;;;;;;;5079382;28;20289;-66
2023/10/26 11:33:35;;;;;;;30.50;17.53;;;;;;;;;;5082932;28;20639;-67
2023/10/26 11:36:00;;;;;;;33.53;18.80;;;;;;;;;;5084188;28;20021;-67
2023/10/26 11:38:29;;;;;;;29.63;17.97;;;;;;;;;;5084404;28;20500;-67
2023/10/26 11:40:55;;;;;;;30.90;17.60;;;;;;;;;;5078556;28;20061;-67
2023/10/26 11:43:30;;;;;;;30.63;17.57;;;;;;;;;;5078918;28;20032;-67
2023/10/26 11:45:55;;;;;;;30.53;17.33;;;;;;;;;;5083785;28;20508;-66
2023/10/26 11:48:27;;;;;;;33.70;18.03;;;;;;;;;;5081795;28;20107;-67
2023/10/26 11:50:53;;;;;;;30.73;18.37;;;;;;;;;;5076275;28;20055;-66
2023/10/26 11:53:18;;;;;;;31.93;19.13;;;;;;;;;;5079294;28;20469;-67
2023/10/26 11:55:43;;;;;;;34.00;19.43;;;;;;;;;;5080302;28;20027;-67
2023/10/26 11:58:08;;;;;;;35.60;19.80;;;;;;;;;;5080394;28;20511;-67
2023/10/26 12:00:34;;;;;;;35.00;19.43;;;;;;;;;;5083381;28;20012;-67
2023/10/26 12:02:59;;;;;;;33.67;20.30;;;;;;;;;;5079616;28;20052;-67
2023/10/26 12:05:25;;;;;;;36.83;20.80;;;;;;;;;;5082551;28;20087;-67
2023/10/26 12:07:50;;;;;;;35.43;20.07;;;;;;;;;;5080446;28;20091;-67
2023/10/26 12:10:17;;;;;;;35.40;20.30;;;;;;;;;;5083447;28;20149;-66
2023/10/26 12:12:43;;;;;;;34.40;20.37;;;;;;;;;;5078458;28;20164;-67
2023/10/26 12:15:08;;;;;;;39.87;21.97;;;;;;;;;;5082595;28;20039;-67
2023/10/26 12:17:34;;;;;;;38.23;21.40;;;;;;;;;;5082269;28;20064;-67
2023/10/26 12:19:59;;;;;;;37.73;21.40;;;;;;;;;;5080662;28;20020;-67
2023/10/26 12:22:24;;;;;;;37.90;19.77;;;;;;;;;;5082029;28;20031;-67
2023/10/26 12:24:49;;;;;;;34.33;19.53;;;;;;;;;;5079646;28;20426;-67
2023/10/26 12:27:18;;;;;;;33.47;19.67;;;;;;;;;;5083689;28;20255;-67
2023/10/26 12:29:43;;;;;;;33.20;19.13;;;;;;;;;;5080745;28;20221;-67
2023/10/26 12:32:09;;;;;;;28.73;17.23;;;;;;;;;;5079237;28;20503;-67
2023/10/26 12:34:34;;;;;;;32.63;17.27;;;;;;;;;;5083492;28;20502;-67
2023/10/26 12:36:59;;;;;;;27.75;17.08;;;;;;;;;;5080104;28;20065;-67
2023/10/26 12:39:25;;;;;;;29.87;17.43;;;;;;;;;;5080229;28;20145;-67
2023/10/26 12:41:50;;;;;;;29.13;17.40;;;;;;;;;;5081428;28;20473;-67
2023/10/26 12:44:16;;;;;;;27.37;17.30;;;;;;;;;;5082550;28;20024;-67
2023/10/26 12:46:41;;;;;;;27.47;17.47;;;;;;;;;;5080901;28;20020;-67
2023/10/26 12:49:07;;;;;;;30.87;17.73;;;;;;;;;;5080429;28;20472;-67
2023/10/26 12:51:32;;;;;;;26.73;16.07;;;;;;;;;;5073337;28;20017;-67
2023/10/26 12:53:57;;;;;;;22.97;14.70;;;;;;;;;;5084183;28;20434;-67
2023/10/26 12:56:22;;;;;;;23.57;14.63;;;;;;;;;;5083877;28;20654;-67
2023/10/26 12:58:47;;;;;;;25.40;14.17;;;;;;;;;;5079600;28;20361;-67
2023/10/26 13:01:13;;;;;;;25.63;15.33;;;;;;;;;;5076912;28;20123;-68
2023/10/26 13:03:38;;;;;;;24.55;15.35;;;;;;;;;;5076828;28;20052;-67
2023/10/26 13:06:03;;;;;;;24.03;15.93;;;;;;;;;;5080482;28;20025;-67
2023/10/26 13:08:28;;;;;;;28.03;15.27;;;;;;;;;;5081697;28;20024;-67
2023/10/26 13:10:54;;;;;;;23.17;14.98;;;;;;;;;;5081881;28;20347;-67
2023/10/26 13:13:19;;;;;;;24.77;15.13;;;;;;;;;;5078828;28;20020;-67
2023/10/26 13:15:44;;;;;;;22.60;15.02;;;;;;;;;;5078619;28;20059;-67
2023/10/26 13:18:09;;;;;;;29.42;15.10;;;;;;;;;;5081425;28;20035;-67
2023/10/26 13:20:35;;;;;;;24.33;14.60;;;;;;;;;;5082045;28;20020;-67
2023/10/26 13:23:00;;;;;;;25.15;14.88;;;;;;;;;;5078760;28;20289;-67
2023/10/26 13:25:26;;;;;;;21.55;13.95;;;;;;;;;;5081241;28;20028;-67
2023/10/26 13:27:54;;;;;;;25.73;14.97;;;;;;;;;;5079342;28;20084;-67
2023/10/26 13:30:19;;;;;;;25.53;14.73;;;;;;;;;;5083461;28;20055;-67
2023/10/26 13:32:45;;;;;;;25.47;15.37;;;;;;;;;;5079635;28;20531;-67
2023/10/26 13:35:11;;;;;;;24.83;14.73;;;;;;;;;;5064777;28;20468;-67
2023/10/26 13:37:36;;;;;;;25.27;15.38;;;;;;;;;;5080897;28;20608;-67
2023/10/26 13:40:01;;;;;;;25.33;14.47;;;;;;;;;;5079081;28;20024;-67
2023/10/26 13:42:26;;;;;;;23.25;14.80;;;;;;;;;;5079765;28;20024;-67
2023/10/26 13:44:52;;;;;;;24.97;15.17;;;;;;;;;;5074206;28;20022;-67
2023/10/26 13:47:17;;;;;;;25.83;15.23;;;;;;;;;;5081001;28;20012;-67
2023/10/26 13:49:42;;;;;;;26.00;15.60;;;;;;;;;;5079741;28;20421;-67
2023/10/26 13:52:08;;;;;;;24.00;14.60;;;;;;;;;;5080333;28;20372;-65
2023/10/26 13:54:33;;;;;;;23.92;15.32;;;;;;;;;;5083102;28;20024;-64
2023/10/26 13:56:59;;;;;;;30.00;16.73;;;;;;;;;;5080360;28;20024;-64
2023/10/26 13:59:24;;;;;;;30.63;16.03;;;;;;;;;;5078235;28;20439;-65
2023/10/26 14:01:49;;;;;;;27.03;16.17;;;;;;;;;;5081896;28;20028;-65
2023/10/26 14:04:14;;;;;;;27.27;16.33;;;;;;;;;;5083543;28;20085;-64
2023/10/26 14:06:40;;;;;;;27.57;16.37;;;;;;;;;;5081506;28;20016;-65
2023/10/26 14:09:05;;;;;;;30.77;17.87;;;;;;;;;;5080415;28;20044;-65